sensor_id;sensor_type;location;lat;lon;timestamp;pressure;altitude;pressure_sealevel;temperature;humidity
11053;BME280;55230;42.602;23.470;2023-01-09T00:00:56;93567.16;;;1.58;100.00
11053;BME280;55230;42.602;23.470;2023-01-09T00:03:23;93765.47;;;2.90;100.00
11053;BME280;55230;42.602;23.470;2023-01-09T00:05:50;93439.38;;;0.59;100.00
11053;BME280;55230;42.602;23.470;2023-01-09T00:08:17;93793.97;;;2.96;100.00
11053;BME280;55230;42.602;23.470;2023-01-09T00:10:44;93640.44;;;2.21;100.00
11053;BME280;55230;42.602;23.470;2023-01-09T00:13:11;93786.03;;;2.86;100.00
11053;BME280;55230;42.602;23.470;2023-01-09T00:15:39;93666.28;;;2.24;100.00
11053;BME280;55230;42.602;23.470;2023-01-09T00:18:07;93792.34;;;3.09;100.00
11053;BME280;55230;42.602;23.470;2023-01-09T00:20:35;93630.22;;;2.16;100.00
11053;BME280;55230;42.602;23.470;2023-01-09T00:23:02;93756.06;;;2.71;100.00
11053;BME280;55230;42.602;23.470;2023-01-09T00:25:29;93525.38;;;0.79;100.00
11053;BME280;55230;42.602;23.470;2023-01-09T00:27:56;93773.94;;;2.74;100.00
11053;BME280;55230;42.602;23.470;2023-01-09T00:30:23;93695.03;;;2.47;100.00
11053;BME280;55230;42.602;23.470;2023-01-09T00:32:50;93527.03;;;1.32;100.00
11053;BME280;55230;42.602;23.470;2023-01-09T00:35:18;93764.22;;;3.05;100.00
11053;BME280;55230;42.602;23.470;2023-01-09T00:37:46;93756.59;;;3.07;100.00
11053;BME280;55230;42.602;23.470;2023-01-09T00:40:13;93752.31;;;3.16;99.71
11053;BME280;55230;42.602;23.470;2023-01-09T00:42:41;93715.38;;;2.74;99.45
11053;BME280;55230;42.602;23.470;2023-01-09T00:45:13;93712.84;;;2.57;98.68
11053;BME280;55230;42.602;23.470;2023-01-09T00:47:42;93767.41;;;2.86;99.17
11053;BME280;55230;42.602;23.470;2023-01-09T00:50:13;93747.44;;;3.08;98.60
11053;BME280;55230;42.602;23.470;2023-01-09T00:52:43;93740.34;;;2.91;99.25
11053;BME280;55230;42.602;23.470;2023-01-09T00:55:11;93758.66;;;2.85;99.69
11053;BME280;55230;42.602;23.470;2023-01-09T00:57:39;93454.81;;;0.85;100.00
11053;BME280;55230;42.602;23.470;2023-01-09T01:00:08;93342.59;;;0.02;100.00
11053;BME280;55230;42.602;23.470;2023-01-09T01:02:35;93749.63;;;2.72;100.00
11053;BME280;55230;42.602;23.470;2023-01-09T01:05:03;93743.59;;;2.61;100.00
11053;BME280;55230;42.602;23.470;2023-01-09T01:07:48;93758.78;;;2.64;100.00
11053;BME280;55230;42.602;23.470;2023-01-09T01:10:17;93244.47;;;-1.02;100.00
11053;BME280;55230;42.602;23.470;2023-01-09T01:12:46;93692.13;;;2.20;100.00
11053;BME280;55230;42.602;23.470;2023-01-09T01:15:14;93761.88;;;2.52;100.00
11053;BME280;55230;42.602;23.470;2023-01-09T01:17:42;93796.13;;;2.54;100.00
11053;BME280;55230;42.602;23.470;2023-01-09T01:20:12;93748.13;;;2.64;100.00
11053;BME280;55230;42.602;23.470;2023-01-09T01:22:39;93741.34;;;2.56;100.00
11053;BME280;55230;42.602;23.470;2023-01-09T01:25:09;93745.00;;;2.76;100.00
11053;BME280;55230;42.602;23.470;2023-01-09T01:27:36;93685.66;;;2.24;100.00
11053;BME280;55230;42.602;23.470;2023-01-09T01:30:04;93725.47;;;2.42;100.00
11053;BME280;55230;42.602;23.470;2023-01-09T01:32:31;93503.75;;;0.81;100.00
11053;BME280;55230;42.602;23.470;2023-01-09T01:34:58;93716.69;;;2.45;100.00
11053;BME280;55230;42.602;23.470;2023-01-09T01:37:25;93665.22;;;2.07;100.00
11053;BME280;55230;42.602;23.470;2023-01-09T01:39:52;93716.38;;;2.40;100.00
11053;BME280;55230;42.602;23.470;2023-01-09T01:42:21;93649.41;;;1.83;100.00
11053;BME280;55230;42.602;23.470;2023-01-09T01:45:00;93700.97;;;2.03;100.00
11053;BME280;55230;42.602;23.470;2023-01-09T01:47:37;93702.06;;;2.12;100.00
11053;BME280;55230;42.602;23.470;2023-01-09T01:50:10;93623.31;;;1.60;100.00
11053;BME280;55230;42.602;23.470;2023-01-09T01:52:38;93760.88;;;2.28;100.00
11053;BME280;55230;42.602;23.470;2023-01-09T01:55:07;93743.03;;;2.29;100.00
11053;BME280;55230;42.602;23.470;2023-01-09T01:57:39;93682.63;;;2.22;100.00
11053;BME280;55230;42.602;23.470;2023-01-09T02:00:10;93700.44;;;2.32;100.00
11053;BME280;55230;42.602;23.470;2023-01-09T02:02:37;93690.53;;;2.33;100.00
11053;BME280;55230;42.602;23.470;2023-01-09T02:05:05;93685.25;;;2.29;100.00
11053;BME280;55230;42.602;23.470;2023-01-09T02:07:32;93693.19;;;2.33;100.00
11053;BME280;55230;42.602;23.470;2023-01-09T02:09:59;93487.69;;;1.05;100.00
11053;BME280;55230;42.602;23.470;2023-01-09T02:12:27;93626.91;;;1.98;100.00
11053;BME280;55230;42.602;23.470;2023-01-09T02:14:57;93690.50;;;2.40;100.00
11053;BME280;55230;42.602;23.470;2023-01-09T02:17:40;93591.03;;;1.62;100.00
11053;BME280;55230;42.602;23.470;2023-01-09T02:20:36;93561.72;;;1.79;100.00
11053;BME280;55230;42.602;23.470;2023-01-09T02:23:37;93316.06;;;0.09;100.00
11053;BME280;55230;42.602;23.470;2023-01-09T02:32:03;93639.00;;;2.09;100.00
11053;BME280;55230;42.602;23.470;2023-01-09T02:34:36;93697.72;;;2.43;100.00
11053;BME280;55230;42.602;23.470;2023-01-09T02:37:11;93677.59;;;2.38;100.00
11053;BME280;55230;42.602;23.470;2023-01-09T02:39:48;93609.44;;;1.97;100.00
11053;BME280;55230;42.602;23.470;2023-01-09T02:42:20;93659.31;;;2.44;100.00
11053;BME280;55230;42.602;23.470;2023-01-09T02:44:48;93649.50;;;2.30;100.00
11053;BME280;55230;42.602;23.470;2023-01-09T02:47:41;93617.97;;;1.71;100.00
11053;BME280;55230;42.602;23.470;2023-01-09T02:50:13;93487.78;;;0.91;100.00
11053;BME280;55230;42.602;23.470;2023-01-09T02:52:51;93691.88;;;1.97;100.00
11053;BME280;55230;42.602;23.470;2023-01-09T02:55:34;93569.56;;;1.25;100.00
11053;BME280;55230;42.602;23.470;2023-01-09T02:58:09;93479.50;;;0.75;100.00
11053;BME280;55230;42.602;23.470;2023-01-09T03:00:45;93698.19;;;2.27;100.00
11053;BME280;55230;42.602;23.470;2023-01-09T03:03:22;93659.81;;;2.25;100.00
11053;BME280;55230;42.602;23.470;2023-01-09T03:05:55;93644.38;;;1.99;100.00
11053;BME280;55230;42.602;23.470;2023-01-09T03:08:29;93596.00;;;1.53;100.00
11053;BME280;55230;42.602;23.470;2023-01-09T03:11:01;93646.13;;;1.51;100.00
11053;BME280;55230;42.602;23.470;2023-01-09T03:13:34;93394.50;;;-0.11;100.00
11053;BME280;55230;42.602;23.470;2023-01-09T03:16:06;93658.13;;;1.87;100.00
11053;BME280;55230;42.602;23.470;2023-01-09T03:18:38;93427.00;;;0.14;100.00
11053;BME280;55230;42.602;23.470;2023-01-09T03:21:07;93662.09;;;1.44;100.00
11053;BME280;55230;42.602;23.470;2023-01-09T03:23:52;93538.72;;;0.30;100.00
11053;BME280;55230;42.602;23.470;2023-01-09T03:26:19;93656.09;;;1.11;100.00
11053;BME280;55230;42.602;23.470;2023-01-09T03:28:47;93636.78;;;0.97;100.00
11053;BME280;55230;42.602;23.470;2023-01-09T03:31:14;93723.59;;;1.17;100.00
11053;BME280;55230;42.602;23.470;2023-01-09T03:33:43;93659.13;;;1.28;100.00
11053;BME280;55230;42.602;23.470;2023-01-09T03:36:11;93665.16;;;1.25;100.00
11053;BME280;55230;42.602;23.470;2023-01-09T03:38:38;93428.19;;;-0.33;100.00
11053;BME280;55230;42.602;23.470;2023-01-09T03:41:05;93593.22;;;0.80;100.00
11053;BME280;55230;42.602;23.470;2023-01-09T03:43:32;93579.22;;;0.55;100.00
11053;BME280;55230;42.602;23.470;2023-01-09T03:45:59;93691.78;;;0.82;100.00
11053;BME280;55230;42.602;23.470;2023-01-09T03:48:27;93679.63;;;0.99;100.00
11053;BME280;55230;42.602;23.470;2023-01-09T03:50:55;93662.59;;;0.89;100.00
11053;BME280;55230;42.602;23.470;2023-01-09T03:53:24;93673.59;;;0.84;100.00
11053;BME280;55230;42.602;23.470;2023-01-09T03:55:52;93662.22;;;0.87;100.00
11053;BME280;55230;42.602;23.470;2023-01-09T03:58:20;93448.63;;;-0.68;100.00
11053;BME280;55230;42.602;23.470;2023-01-09T04:00:48;93661.47;;;0.69;100.00
11053;BME280;55230;42.602;23.470;2023-01-09T04:03:17;93670.19;;;0.66;100.00
11053;BME280;55230;42.602;23.470;2023-01-09T04:05:46;93232.59;;;-2.24;100.00
11053;BME280;55230;42.602;23.470;2023-01-09T04:08:15;93248.13;;;-2.01;100.00
11053;BME280;55230;42.602;23.470;2023-01-09T04:10:43;93666.00;;;0.86;100.00
11053;BME280;55230;42.602;23.470;2023-01-09T04:13:10;93658.81;;;0.73;100.00
11053;BME280;55230;42.602;23.470;2023-01-09T04:15:37;93392.56;;;-1.34;100.00
11053;BME280;55230;42.602;23.470;2023-01-09T04:18:04;93524.34;;;-0.11;100.00
11053;BME280;55230;42.602;23.470;2023-01-09T04:20:31;93659.19;;;0.82;100.00
11053;BME280;55230;42.602;23.470;2023-01-09T04:22:59;93594.78;;;0.39;100.00
11053;BME280;55230;42.602;23.470;2023-01-09T04:25:27;93644.41;;;0.84;100.00
11053;BME280;55230;42.602;23.470;2023-01-09T04:27:54;93211.88;;;-2.18;100.00
11053;BME280;55230;42.602;23.470;2023-01-09T04:30:21;93624.34;;;0.38;100.00
11053;BME280;55230;42.602;23.470;2023-01-09T04:32:48;93541.75;;;-0.14;100.00
11053;BME280;55230;42.602;23.470;2023-01-09T04:35:17;93433.06;;;-1.01;100.00
11053;BME280;55230;42.602;23.470;2023-01-09T04:37:44;93445.56;;;-0.98;100.00
11053;BME280;55230;42.602;23.470;2023-01-09T04:40:12;93664.13;;;0.45;100.00
11053;BME280;55230;42.602;23.470;2023-01-09T04:42:40;93651.59;;;0.52;100.00
11053;BME280;55230;42.602;23.470;2023-01-09T04:45:09;93643.66;;;0.59;100.00
11053;BME280;55230;42.602;23.470;2023-01-09T04:47:37;93468.69;;;-0.53;100.00
11053;BME280;55230;42.602;23.470;2023-01-09T04:50:04;93276.06;;;-2.04;100.00
11053;BME280;55230;42.602;23.470;2023-01-09T04:52:37;93638.34;;;0.31;100.00
11053;BME280;55230;42.602;23.470;2023-01-09T04:55:08;93662.22;;;0.24;100.00
11053;BME280;55230;42.602;23.470;2023-01-09T04:57:35;93309.47;;;-2.40;100.00
11053;BME280;55230;42.602;23.470;2023-01-09T05:00:05;93583.00;;;-0.27;100.00
11053;BME280;55230;42.602;23.470;2023-01-09T05:02:35;93610.63;;;-0.17;100.00
11053;BME280;55230;42.602;23.470;2023-01-09T05:05:39;93644.78;;;0.23;100.00
11053;BME280;55230;42.602;23.470;2023-01-09T05:12:22;93623.91;;;-0.03;100.00
11053;BME280;55230;42.602;23.470;2023-01-09T05:14:51;93659.13;;;-0.06;100.00
11053;BME280;55230;42.602;23.470;2023-01-09T05:17:23;93673.50;;;-0.14;100.00
11053;BME280;55230;42.602;23.470;2023-01-09T05:19:53;93666.28;;;-0.10;100.00
11053;BME280;55230;42.602;23.470;2023-01-09T05:22:25;93695.81;;;-0.15;100.00
11053;BME280;55230;42.602;23.470;2023-01-09T05:24:56;93730.63;;;-0.20;100.00
11053;BME280;55230;42.602;23.470;2023-01-09T05:27:53;93469.59;;;-1.46;100.00
11053;BME280;55230;42.602;23.470;2023-01-09T05:30:21;93672.63;;;-0.39;100.00
11053;BME280;55230;42.602;23.470;2023-01-09T05:32:50;93650.69;;;-0.43;100.00
11053;BME280;55230;42.602;23.470;2023-01-09T05:35:17;93645.41;;;-0.43;100.00
11053;BME280;55230;42.602;23.470;2023-01-09T05:37:48;93567.94;;;-1.16;100.00
11053;BME280;55230;42.602;23.470;2023-01-09T05:40:15;93667.03;;;-0.20;100.00
11053;BME280;55230;42.602;23.470;2023-01-09T05:42:42;93346.81;;;-2.41;100.00
11053;BME280;55230;42.602;23.470;2023-01-09T05:45:10;93603.00;;;-0.40;100.00
11053;BME280;55230;42.602;23.470;2023-01-09T05:47:37;93563.28;;;-0.54;100.00
11053;BME280;55230;42.602;23.470;2023-01-09T05:50:10;93540.22;;;-0.32;100.00
11053;BME280;55230;42.602;23.470;2023-01-09T05:52:37;93526.63;;;-0.06;100.00
11053;BME280;55230;42.602;23.470;2023-01-09T05:55:05;93635.69;;;0.73;100.00
11053;BME280;55230;42.602;23.470;2023-01-09T05:57:33;93627.31;;;0.96;100.00
11053;BME280;55230;42.602;23.470;2023-01-09T06:00:00;93624.22;;;1.22;100.00
11053;BME280;55230;42.602;23.470;2023-01-09T06:02:30;93617.34;;;1.32;100.00
11053;BME280;55230;42.602;23.470;2023-01-09T06:38:55;93044.31;;;-2.70;100.00
11053;BME280;55230;42.602;23.470;2023-01-09T06:41:22;93448.97;;;0.22;100.00
11053;BME280;55230;42.602;23.470;2023-01-09T06:43:50;93373.34;;;-0.60;100.00
11053;BME280;55230;42.602;23.470;2023-01-09T06:46:20;93516.66;;;0.75;100.00
11053;BME280;55230;42.602;23.470;2023-01-09T06:49:08;93631.00;;;1.30;100.00
11053;BME280;55230;42.602;23.470;2023-01-09T07:15:38;93689.47;;;1.19;100.00
11053;BME280;55230;42.602;23.470;2023-01-09T07:18:09;93350.66;;;-0.47;100.00
11053;BME280;55230;42.602;23.470;2023-01-09T07:23:51;93233.50;;;-1.11;100.00
11053;BME280;55230;42.602;23.470;2023-01-09T07:24:22;93280.28;;;-0.48;100.00
11053;BME280;55230;42.602;23.470;2023-01-09T07:26:52;93486.78;;;0.43;100.00
11053;BME280;55230;42.602;23.470;2023-01-09T07:29:36;93230.78;;;-0.72;100.00
11053;BME280;55230;42.602;23.470;2023-01-09T07:32:16;93392.63;;;-0.07;100.00
11053;BME280;55230;42.602;23.470;2023-01-09T07:35:23;93625.53;;;1.76;100.00
11053;BME280;55230;42.602;23.470;2023-01-09T07:41:04;93504.50;;;1.57;100.00
11053;BME280;55230;42.602;23.470;2023-01-09T07:43:33;93639.41;;;2.59;100.00
11053;BME280;55230;42.602;23.470;2023-01-09T07:46:06;93624.09;;;2.26;100.00
11053;BME280;55230;42.602;23.470;2023-01-09T07:48:34;93212.56;;;-0.42;100.00
11053;BME280;55230;42.602;23.470;2023-01-09T07:51:01;93577.91;;;2.50;100.00
11053;BME280;55230;42.602;23.470;2023-01-09T07:53:29;93623.88;;;2.54;100.00
11053;BME280;55230;42.602;23.470;2023-01-09T07:55:56;93538.72;;;2.06;100.00
11053;BME280;55230;42.602;23.470;2023-01-09T07:58:22;93651.56;;;2.64;100.00
11053;BME280;55230;42.602;23.470;2023-01-09T08:00:50;93547.75;;;2.16;100.00
11053;BME280;55230;42.602;23.470;2023-01-09T08:03:16;93471.47;;;1.58;100.00
11053;BME280;55230;42.602;23.470;2023-01-09T08:05:45;93646.78;;;2.89;100.00
11053;BME280;55230;42.602;23.470;2023-01-09T08:08:12;93679.59;;;3.19;100.00
11053;BME280;55230;42.602;23.470;2023-01-09T08:10:39;93501.53;;;2.03;100.00
11053;BME280;55230;42.602;23.470;2023-01-09T08:13:06;93659.88;;;3.13;100.00
11053;BME280;55230;42.602;23.470;2023-01-09T08:15:33;93663.44;;;3.37;100.00
11053;BME280;55230;42.602;23.470;2023-01-09T08:17:59;93335.66;;;1.01;100.00
11053;BME280;55230;42.602;23.470;2023-01-09T08:20:26;93661.53;;;3.37;100.00
11053;BME280;55230;42.602;23.470;2023-01-09T08:22:54;93552.38;;;2.56;100.00
11053;BME280;55230;42.602;23.470;2023-01-09T08:25:22;93666.91;;;3.34;100.00
11053;BME280;55230;42.602;23.470;2023-01-09T08:27:51;93657.91;;;3.21;100.00
11053;BME280;55230;42.602;23.470;2023-01-09T08:30:21;93709.75;;;3.53;100.00
11053;BME280;55230;42.602;23.470;2023-01-09T08:32:49;93583.41;;;2.73;100.00
11053;BME280;55230;42.602;23.470;2023-01-09T08:35:16;93672.78;;;3.52;100.00
11053;BME280;55230;42.602;23.470;2023-01-09T08:37:43;93616.47;;;3.50;99.62
11053;BME280;55230;42.602;23.470;2023-01-09T08:40:13;93669.59;;;4.28;98.19
11053;BME280;55230;42.602;23.470;2023-01-09T08:42:40;93662.69;;;4.57;95.92
11053;BME280;55230;42.602;23.470;2023-01-09T08:45:24;93506.25;;;3.33;96.87
11053;BME280;55230;42.602;23.470;2023-01-09T08:48:08;93656.81;;;4.16;97.49
11053;BME280;55230;42.602;23.470;2023-01-09T08:50:35;93508.19;;;2.99;99.66
11053;BME280;55230;42.602;23.470;2023-01-09T08:53:02;93463.19;;;2.41;100.00
11053;BME280;55230;42.602;23.470;2023-01-09T08:55:31;93653.81;;;4.10;100.00
11053;BME280;55230;42.602;23.470;2023-01-09T08:57:57;93490.25;;;3.33;99.54
11053;BME280;55230;42.602;23.470;2023-01-09T09:00:24;93632.47;;;4.63;97.64
11053;BME280;55230;42.602;23.470;2023-01-09T09:02:51;93283.63;;;2.53;95.50
11053;BME280;55230;42.602;23.470;2023-01-09T09:05:19;93627.88;;;5.10;95.52
11053;BME280;55230;42.602;23.470;2023-01-09T09:07:51;93542.91;;;4.79;93.69
11053;BME280;55230;42.602;23.470;2023-01-09T09:10:19;93631.97;;;5.57;92.45
11053;BME280;55230;42.602;23.470;2023-01-09T09:12:50;93514.94;;;5.06;91.08
11053;BME280;55230;42.602;23.470;2023-01-09T09:15:17;93578.84;;;5.40;88.67
11053;BME280;55230;42.602;23.470;2023-01-09T09:17:48;93620.94;;;6.14;88.91
11053;BME280;55230;42.602;23.470;2023-01-09T09:20:15;93624.75;;;6.49;87.36
11053;BME280;55230;42.602;23.470;2023-01-09T09:22:44;93503.28;;;5.91;86.82
11053;BME280;55230;42.602;23.470;2023-01-09T09:25:11;93566.91;;;6.51;84.59
11053;BME280;55230;42.602;23.470;2023-01-09T09:27:41;93616.34;;;7.11;84.77
11053;BME280;55230;42.602;23.470;2023-01-09T09:30:10;93608.44;;;6.75;82.09
11053;BME280;55230;42.602;23.470;2023-01-09T09:32:38;93606.63;;;6.37;85.69
11053;BME280;55230;42.602;23.470;2023-01-09T09:35:06;93255.38;;;3.97;86.34
11053;BME280;55230;42.602;23.470;2023-01-09T09:37:33;93577.78;;;5.34;93.43
11053;BME280;55230;42.602;23.470;2023-01-09T09:40:03;93564.44;;;5.14;96.38
11053;BME280;55230;42.602;23.470;2023-01-09T09:42:50;93421.63;;;4.14;95.91
11053;BME280;55230;42.602;23.470;2023-01-09T09:45:47;93540.28;;;4.98;96.73
11053;BME280;55230;42.602;23.470;2023-01-09T09:48:26;93557.56;;;5.13;96.33
11053;BME280;55230;42.602;23.470;2023-01-09T09:51:23;93533.09;;;5.34;94.64
11053;BME280;55230;42.602;23.470;2023-01-09T09:53:56;93523.41;;;5.40;93.67
11053;BME280;55230;42.602;23.470;2023-01-09T09:56:26;93451.50;;;5.10;92.59
11053;BME280;55230;42.602;23.470;2023-01-09T09:58:58;93518.75;;;6.00;92.64
11053;BME280;55230;42.602;23.470;2023-01-09T10:01:41;93275.84;;;4.23;90.74
11053;BME280;55230;42.602;23.470;2023-01-09T10:04:15;93517.66;;;5.97;90.72
11053;BME280;55230;42.602;23.470;2023-01-09T10:06:45;93509.22;;;5.99;89.77
11053;BME280;55230;42.602;23.470;2023-01-09T10:09:21;93495.03;;;6.18;89.94
11053;BME280;55230;42.602;23.470;2023-01-09T10:11:56;93212.91;;;4.26;88.73
11053;BME280;55230;42.602;23.470;2023-01-09T10:14:25;93480.13;;;6.33;87.91
11053;BME280;55230;42.602;23.470;2023-01-09T10:17:05;93474.63;;;6.68;88.45
11053;BME280;55230;42.602;23.470;2023-01-09T10:19:44;93467.38;;;7.10;86.16
11053;BME280;55230;42.602;23.470;2023-01-09T10:22:20;93285.16;;;5.38;84.52
11053;BME280;55230;42.602;23.470;2023-01-09T10:25:02;93354.00;;;6.56;83.64
11053;BME280;55230;42.602;23.470;2023-01-09T10:27:39;93414.66;;;6.50;84.94
11053;BME280;55230;42.602;23.470;2023-01-09T10:30:25;93363.16;;;6.30;85.98
11053;BME280;55230;42.602;23.470;2023-01-09T10:33:04;93351.75;;;6.42;84.64
11053;BME280;55230;42.602;23.470;2023-01-09T10:35:43;93434.09;;;6.95;85.47
11053;BME280;55230;42.602;23.470;2023-01-09T10:38:19;93421.63;;;6.76;85.39
11053;BME280;55230;42.602;23.470;2023-01-09T10:40:51;93398.06;;;6.96;83.89
11053;BME280;55230;42.602;23.470;2023-01-09T10:43:26;93465.31;;;7.43;83.34
11053;BME280;55230;42.602;23.470;2023-01-09T10:45:57;93144.94;;;5.39;82.43
11053;BME280;55230;42.602;23.470;2023-01-09T10:48:31;93426.19;;;7.04;84.03
11053;BME280;55230;42.602;23.470;2023-01-09T10:50:59;93417.03;;;6.89;84.93
11053;BME280;55230;42.602;23.470;2023-01-09T10:53:29;93336.72;;;6.73;83.92
11053;BME280;55230;42.602;23.470;2023-01-09T10:55:59;93405.53;;;7.17;82.55
11053;BME280;55230;42.602;23.470;2023-01-09T10:58:28;93352.22;;;6.37;83.99
11053;BME280;55230;42.602;23.470;2023-01-09T11:00:55;93292.31;;;5.90;85.19
11053;BME280;55230;42.602;23.470;2023-01-09T11:03:27;93401.28;;;6.91;85.63
11053;BME280;55230;42.602;23.470;2023-01-09T11:05:57;93120.72;;;5.02;84.27
11053;BME280;55230;42.602;23.470;2023-01-09T11:08:28;93020.03;;;4.54;83.64
11053;BME280;55230;42.602;23.470;2023-01-09T11:10:57;93334.97;;;6.66;82.05
11053;BME280;55230;42.602;23.470;2023-01-09T11:13:26;93382.03;;;7.34;82.20
11053;BME280;55230;42.602;23.470;2023-01-09T11:16:13;93331.81;;;7.59;81.20
11053;BME280;55230;42.602;23.470;2023-01-09T11:18:48;93324.75;;;7.99;78.20
11053;BME280;55230;42.602;23.470;2023-01-09T11:21:30;93298.69;;;7.53;77.93
11053;BME280;55230;42.602;23.470;2023-01-09T11:24:22;93356.41;;;8.30;77.86
11053;BME280;55230;42.602;23.470;2023-01-09T11:26:53;93261.47;;;7.30;76.37
11053;BME280;55230;42.602;23.470;2023-01-09T11:29:21;93256.31;;;7.23;76.74
11053;BME280;55230;42.602;23.470;2023-01-09T11:31:51;93369.31;;;8.09;77.40
11053;BME280;55230;42.602;23.470;2023-01-09T11:34:21;93098.59;;;6.00;77.99
11053;BME280;55230;42.602;23.470;2023-01-09T11:36:51;93340.09;;;8.11;77.66
11053;BME280;55230;42.602;23.470;2023-01-09T11:39:21;93154.63;;;6.69;77.23
11053;BME280;55230;42.602;23.470;2023-01-09T11:41:52;93166.94;;;6.67;78.00
11053;BME280;55230;42.602;23.470;2023-01-09T11:44:20;93351.81;;;8.05;76.42
11053;BME280;55230;42.602;23.470;2023-01-09T11:46:47;93334.97;;;8.04;77.54
11053;BME280;55230;42.602;23.470;2023-01-09T11:49:22;93293.97;;;7.45;78.77
11053;BME280;55230;42.602;23.470;2023-01-09T11:52:14;93328.41;;;7.46;80.12
11053;BME280;55230;42.602;23.470;2023-01-09T11:54:44;93322.72;;;7.57;80.29
11053;BME280;55230;42.602;23.470;2023-01-09T11:57:13;93252.25;;;7.06;80.33
11053;BME280;55230;42.602;23.470;2023-01-09T11:59:40;93249.47;;;7.22;79.23
11053;BME280;55230;42.602;23.470;2023-01-09T12:02:40;93327.63;;;8.17;79.21
11053;BME280;55230;42.602;23.470;2023-01-09T12:05:16;93328.88;;;8.60;78.51
11053;BME280;55230;42.602;23.470;2023-01-09T12:07:59;93040.97;;;6.92;76.49
11053;BME280;55230;42.602;23.470;2023-01-09T12:13:40;93315.75;;;9.14;74.12
11053;BME280;55230;42.602;23.470;2023-01-09T12:16:22;92933.03;;;6.36;71.92
11053;BME280;55230;42.602;23.470;2023-01-09T12:19:05;93182.59;;;7.96;73.93
11053;BME280;55230;42.602;23.470;2023-01-09T12:21:47;93311.56;;;8.61;73.52
11053;BME280;55230;42.602;23.470;2023-01-09T12:24:42;93309.97;;;7.95;76.45
11053;BME280;55230;42.602;23.470;2023-01-09T12:28:25;93134.94;;;6.38;77.41
11053;BME280;55230;42.602;23.470;2023-01-09T12:31:51;93054.59;;;5.88;78.99
11053;BME280;55230;42.602;23.470;2023-01-09T12:35:16;92767.81;;;3.64;78.33
11053;BME280;55230;42.602;23.470;2023-01-09T12:44:48;93223.94;;;6.80;80.34
11053;BME280;55230;42.602;23.470;2023-01-09T12:47:50;93273.50;;;7.13;79.43
11053;BME280;55230;42.602;23.470;2023-01-09T12:50:37;93174.88;;;6.33;78.80
11053;BME280;55230;42.602;23.470;2023-01-09T12:53:31;93257.72;;;7.02;79.50
11053;BME280;55230;42.602;23.470;2023-01-09T12:56:07;93228.25;;;6.65;79.29
11053;BME280;55230;42.602;23.470;2023-01-09T12:58:42;93219.19;;;6.34;80.43
11053;BME280;55230;42.602;23.470;2023-01-09T13:01:18;93190.97;;;6.04;81.49
11053;BME280;55230;42.602;23.470;2023-01-09T13:03:50;93263.59;;;6.60;81.80
11053;BME280;55230;42.602;23.470;2023-01-09T13:06:19;93263.56;;;6.35;81.71
11053;BME280;55230;42.602;23.470;2023-01-09T13:08:51;93265.47;;;6.34;83.14
11053;BME280;55230;42.602;23.470;2023-01-09T13:11:23;93211.25;;;5.60;83.75
11053;BME280;55230;42.602;23.470;2023-01-09T13:13:57;93219.63;;;5.91;84.30
11053;BME280;55230;42.602;23.470;2023-01-09T13:16:29;93271.78;;;5.99;84.51
11053;BME280;55230;42.602;23.470;2023-01-09T13:19:03;93241.91;;;6.01;85.65
11053;BME280;55230;42.602;23.470;2023-01-09T13:21:32;93249.56;;;6.15;84.85
11053;BME280;55230;42.602;23.470;2023-01-09T13:24:05;93245.25;;;6.05;85.02
11053;BME280;55230;42.602;23.470;2023-01-09T13:26:36;93215.69;;;5.96;84.73
11053;BME280;55230;42.602;23.470;2023-01-09T13:29:11;92903.50;;;3.74;85.35
11053;BME280;55230;42.602;23.470;2023-01-09T13:31:57;93237.03;;;6.12;85.98
11053;BME280;55230;42.602;23.470;2023-01-09T13:34:31;93228.06;;;6.18;85.68
11053;BME280;55230;42.602;23.470;2023-01-09T13:36:59;93240.63;;;6.34;85.05
11053;BME280;55230;42.602;23.470;2023-01-09T13:39:29;93241.41;;;6.47;84.96
11053;BME280;55230;42.602;23.470;2023-01-09T13:41:59;93252.03;;;6.50;85.05
11053;BME280;55230;42.602;23.470;2023-01-09T13:44:44;93232.16;;;6.23;84.24
11053;BME280;55230;42.602;23.470;2023-01-09T13:47:18;93200.81;;;5.95;84.42
11053;BME280;55230;42.602;23.470;2023-01-09T13:50:03;93130.28;;;5.31;85.03
11053;BME280;55230;42.602;23.470;2023-01-09T13:52:35;93208.50;;;5.93;86.16
11053;BME280;55230;42.602;23.470;2023-01-09T13:55:25;93205.06;;;6.21;85.81
11053;BME280;55230;42.602;23.470;2023-01-09T13:58:24;93195.94;;;6.18;86.65
11053;BME280;55230;42.602;23.470;2023-01-09T14:01:38;92938.97;;;3.71;86.38
11053;BME280;55230;42.602;23.470;2023-01-09T14:04:35;93206.31;;;6.04;87.42
11053;BME280;55230;42.602;23.470;2023-01-09T14:07:18;92881.75;;;3.43;86.76
11053;BME280;55230;42.602;23.470;2023-01-09T14:09:49;93174.94;;;5.47;87.70
11053;BME280;55230;42.602;23.470;2023-01-09T14:12:18;93219.44;;;5.98;87.84
11053;BME280;55230;42.602;23.470;2023-01-09T14:14:46;92970.72;;;4.30;86.61
11053;BME280;55230;42.602;23.470;2023-01-09T14:17:16;93069.38;;;4.94;86.48
11053;BME280;55230;42.602;23.470;2023-01-09T14:19:45;93097.53;;;5.27;86.84
11053;BME280;55230;42.602;23.470;2023-01-09T14:22:25;93172.25;;;5.75;86.32
11053;BME280;55230;42.602;23.470;2023-01-09T14:25:00;93217.38;;;5.90;87.40
11053;BME280;55230;42.602;23.470;2023-01-09T14:27:50;93220.56;;;5.84;87.52
11053;BME280;55230;42.602;23.470;2023-01-09T14:30:34;93043.13;;;4.16;88.55
11053;BME280;55230;42.602;23.470;2023-01-09T14:33:03;93254.22;;;5.37;90.85
11053;BME280;55230;42.602;23.470;2023-01-09T14:35:41;93191.44;;;5.29;90.25
11053;BME280;55230;42.602;23.470;2023-01-09T14:38:26;93060.75;;;4.42;89.92
11053;BME280;55230;42.602;23.470;2023-01-09T14:40:58;93188.41;;;5.27;90.39
11053;BME280;55230;42.602;23.470;2023-01-09T14:43:31;93185.69;;;4.99;92.19
11053;BME280;55230;42.602;23.470;2023-01-09T14:46:05;93196.53;;;4.76;92.72